United Leadership — V7EN9 — position and weather

sailwx.info

Track history (hours):
 
Tides and Currents Weather Stations Pressure Air Temp Water Temp Dewpoint Dewpoint Depression Visibility Wind Speed Wind Dir Waves Ship Positions

United Leadership

Last reported at 2018-Feb-01 01:25 UTC. Time now 2018-Feb-24 22:10 UTC.
Position N 01°18' E 103°20'.
Warning: this ship's position is 23 days out of date.

Length 274 m; draft 9 m.

Type: Ship (hazmat cat D). MMSI: 538005502.

Date/timePositionNaut miles runAvg speedWind from/ knotsBaromVisibWave heightAir tempDewpointWater temp
2018-Feb-01 01:25N 01°18' E 103°20'614.0
2018-Feb-01 00:59N 01°14' E 103°25'714.7
2018-Feb-01 00:30N 01°12' E 103°32'815.5
2018-Jan-31 23:59N 01°11' E 103°40'1414.3
2018-Jan-31 23:00N 01°13' E 103°54'2 3.5
2018-Jan-31 22:20N 01°15' E 103°55'0 0.2
2018-Jan-31 20:47N 01°15' E 103°54'0 0.2
2018-Jan-31 20:26N 01°15' E 103°54'0 0.0
2018-Jan-31 19:59N 01°15' E 103°54'0 0.0
2018-Jan-31 18:59N 01°15' E 103°54'0 0.0
2018-Jan-31 18:29N 01°15' E 103°54'0 0.0
2018-Jan-31 17:56N 01°15' E 103°54'0 0.0
2018-Jan-31 17:14N 01°15' E 103°54'0 0.0
2018-Jan-31 11:44N 01°15' E 103°54'0 0.2
2018-Jan-31 11:02N 01°15' E 103°54'0 0.0
2018-Jan-31 10:56N 01°15' E 103°54'0 0.0
2018-Jan-31 10:26N 01°15' E 103°54'0 0.1
2018-Jan-31 09:50N 01°15' E 103°54'0 0.1
2018-Jan-31 09:29N 01°15' E 103°54'0 0.0
2018-Jan-31 08:56N 01°15' E 103°54'0 0.1
2018-Jan-31 08:26N 01°15' E 103°54'0 0.0
2018-Jan-31 07:59N 01°15' E 103°54'0 0.0
2018-Jan-31 07:29N 01°15' E 103°54'0 0.0
2018-Jan-31 06:56N 01°15' E 103°54'0 0.0
2018-Jan-31 06:28N 01°15' E 103°54'0 0.1
2018-Jan-31 05:56N 01°15' E 103°54'0 0.1
2018-Jan-31 05:23N 01°15' E 103°55'0 0.1
2018-Jan-31 04:50N 01°15' E 103°55'0 0.3
2018-Jan-31 04:29N 01°15' E 103°54'0 0.2
2018-Jan-31 03:50N 01°15' E 103°54'0 0.2
2018-Jan-31 03:26N 01°15' E 103°54'0 0.0
2018-Jan-31 02:50N 01°15' E 103°54'0 0.2
2018-Jan-31 02:26N 01°15' E 103°54'0 0.0
2018-Jan-31 01:59N 01°15' E 103°54'0 0.0
2018-Jan-31 01:23N 01°15' E 103°54'0 0.1
2018-Jan-31 00:44N 01°15' E 103°54'3 3.7
2018-Jan-31 00:00N 01°13' E 103°52'4 7.3
2018-Jan-30 23:30N 01°12' E 103°49'1 2.1
2018-Jan-30 22:59N 01°13' E 103°48'0 0.0
2018-Jan-30 22:29N 01°13' E 103°48'0 0.0
2018-Jan-30 21:29N 01°13' E 103°48'0 0.0
2018-Jan-30 20:53N 01°13' E 103°48'0 0.0
2018-Jan-30 20:23N 01°13' E 103°48'0 0.0
2018-Jan-30 19:59N 01°13' E 103°48'0 0.0
2018-Jan-30 19:29N 01°13' E 103°48'0 0.0
2018-Jan-30 18:41N 01°13' E 103°48'0 0.0
2018-Jan-30 18:14N 01°13' E 103°48'0 0.0
2018-Jan-30 17:53N 01°13' E 103°48'0 0.0
2018-Jan-30 17:17N 01°13' E 103°48'0 0.0
2018-Jan-30 16:26N 01°13' E 103°48'0 0.0
2018-Jan-30 15:50N 01°13' E 103°48'0 0.0
2018-Jan-30 13:23N 01°13' E 103°48'0 0.0
2018-Jan-30 11:44N 01°13' E 103°48'0 0.0
2018-Jan-30 11:20N 01°13' E 103°48'0 0.0
2018-Jan-30 10:26N 01°13' E 103°48'0 0.0
2018-Jan-30 09:23N 01°13' E 103°48'0 0.0
2018-Jan-30 08:53N 01°13' E 103°48'0 0.0
2018-Jan-30 08:20N 01°13' E 103°48'0 0.0
2018-Jan-30 07:53N 01°13' E 103°48'0 0.0
2018-Jan-30 07:23N 01°13' E 103°48'0 0.0
2018-Jan-30 06:53N 01°13' E 103°48'0 0.0
2018-Jan-30 06:20N 01°13' E 103°48'0 0.0
2018-Jan-30 05:50N 01°13' E 103°48'0 0.0
2018-Jan-30 05:29N 01°13' E 103°48'0 0.0
2018-Jan-30 04:59N 01°13' E 103°48'0 0.0
2018-Jan-30 04:29N 01°13' E 103°48'0 0.0
2018-Jan-30 03:53N 01°13' E 103°48'0 0.0
2018-Jan-30 03:26N 01°13' E 103°48'0 0.0
2018-Jan-30 02:50N 01°13' E 103°48'0 0.0
2018-Jan-30 02:20N 01°13' E 103°48'0 0.0
2018-Jan-30 01:59N 01°13' E 103°48'0 0.0
2018-Jan-30 00:38N 01°13' E 103°48'0 0.0
2018-Jan-30 00:23N 01°13' E 103°48'0 0.0
2018-Jan-29 23:59N 01°13' E 103°48'0 0.0
2018-Jan-29 23:20N 01°13' E 103°48'0 0.0
2018-Jan-29 22:59N 01°13' E 103°48'0 0.0
2018-Jan-29 21:11N 01°13' E 103°48'0 0.0
2018-Jan-29 20:44N 01°13' E 103°48'0 0.0
2018-Jan-29 20:29N 01°13' E 103°48'0 0.0
2018-Jan-29 19:59N 01°13' E 103°48'0 0.0
2018-Jan-29 19:29N 01°13' E 103°48'0 0.0
2018-Jan-29 18:59N 01°13' E 103°48'0 0.0
2018-Jan-29 18:17N 01°13' E 103°48'0 0.0
2018-Jan-29 17:38N 01°13' E 103°48'0 0.0
2018-Jan-29 17:29N 01°13' E 103°48'0 0.0
2018-Jan-29 16:56N 01°13' E 103°48'0 0.0
2018-Jan-29 16:26N 01°13' E 103°48'0 0.0
2018-Jan-29 15:44N 01°13' E 103°48'0 0.0
2018-Jan-29 14:41N 01°13' E 103°48'0 0.0
2018-Jan-29 14:14N 01°13' E 103°48'0 0.0
2018-Jan-29 13:53N 01°13' E 103°48'0 0.0
2018-Jan-29 13:26N 01°13' E 103°48'0 0.0
2018-Jan-29 12:17N 01°13' E 103°48'0 0.0
2018-Jan-29 11:23N 01°13' E 103°48'0 0.0
2018-Jan-29 10:47N 01°13' E 103°48'0 0.0
2018-Jan-29 10:23N 01°13' E 103°48'0 0.0
2018-Jan-29 09:56N 01°13' E 103°48'0 0.0
2018-Jan-29 09:26N 01°13' E 103°48'0 0.0
2018-Jan-29 08:56N 01°13' E 103°48'0 0.0
2018-Jan-29 08:29N 01°13' E 103°48'0 0.0
2018-Jan-29 07:38N 01°13' E 103°48'0 0.0
2018-Jan-29 07:26N 01°13' E 103°48'0 0.0
2018-Jan-29 06:56N 01°13' E 103°48'0 0.0
2018-Jan-29 06:26N 01°13' E 103°48'0 0.0
2018-Jan-29 05:53N 01°13' E 103°48'0 0.0
2018-Jan-29 05:23N 01°13' E 103°48'0 0.0
2018-Jan-29 04:11N 01°13' E 103°48'0 0.0
2018-Jan-29 03:59N 01°13' E 103°48'0 0.0
2018-Jan-29 03:26N 01°13' E 103°48'0 0.0
2018-Jan-29 02:59N 01°13' E 103°48'0 0.0
2018-Jan-29 02:26N 01°13' E 103°48'0 0.0
2018-Jan-29 01:59N 01°13' E 103°48'0 0.0
2018-Jan-29 01:20N 01°13' E 103°48'0 0.0
2018-Jan-29 00:59N 01°13' E 103°48'0 0.0
2018-Jan-28 23:47N 01°13' E 103°48'0 0.0
2018-Jan-28 23:29N 01°13' E 103°48'0 0.0
2018-Jan-28 22:59N 01°13' E 103°48'0 0.0
2018-Jan-28 22:29N 01°13' E 103°48'0 0.0
2018-Jan-28 21:44N 01°13' E 103°48'0 0.0
2018-Jan-28 21:23N 01°13' E 103°48'0 0.0
2018-Jan-28 20:59N 01°13' E 103°48'0 0.0
2018-Jan-28 20:20N 01°13' E 103°48'0 0.0
2018-Jan-28 19:59N 01°13' E 103°48'0 0.0
2018-Jan-28 19:29N 01°13' E 103°48'0 0.0
2018-Jan-28 18:53N 01°13' E 103°48'0 0.0
2018-Jan-28 18:29N 01°13' E 103°48'0 0.0
2018-Jan-28 15:11N 01°13' E 103°48'0 0.0
2018-Jan-28 10:59N 01°13' E 103°48'0 0.0
2018-Jan-28 10:30N 01°13' E 103°48'0 0.2
2018-Jan-28 10:00N 01°13' E 103°48'0 0.9
2018-Jan-28 09:30N 01°13' E 103°48'2 3.8
2018-Jan-28 09:00N 01°12' E 103°50'3 6.4
2018-Jan-28 08:30N 01°14' E 103°53'2 4.4
2018-Jan-28 08:00N 01°15' E 103°54'0 0.3
2018-Jan-28 07:23N 01°15' E 103°54'0 0.0
2018-Jan-28 06:59N 01°15' E 103°54'0 0.1
2018-Jan-28 06:29N 01°15' E 103°55'0 0.0
2018-Jan-28 05:59N 01°15' E 103°55'0 0.0
2018-Jan-28 05:17N 01°15' E 103°55'0 0.0
2018-Jan-28 04:53N 01°15' E 103°55'0 0.0
2018-Jan-28 04:29N 01°15' E 103°55'0 0.0
2018-Jan-28 03:59N 01°15' E 103°55'0 0.0
2018-Jan-28 03:29N 01°15' E 103°55'0 0.0
2018-Jan-28 02:59N 01°15' E 103°55'0 0.0
2018-Jan-28 02:29N 01°15' E 103°55'0 0.0
2018-Jan-28 01:59N 01°15' E 103°55'0 0.1
2018-Jan-28 01:29N 01°15' E 103°55'0 0.1
2018-Jan-28 00:53N 01°15' E 103°55'0 0.3
2018-Jan-28 00:29N 01°15' E 103°54'0 0.1
2018-Jan-27 23:05N 01°15' E 103°54'0 0.0
2018-Jan-27 22:53N 01°15' E 103°54'0 0.0
2018-Jan-27 22:17N 01°15' E 103°54'0 0.0
2018-Jan-27 21:53N 01°15' E 103°54'0 0.0
2018-Jan-27 21:29N 01°15' E 103°54'0 0.0
2018-Jan-27 20:59N 01°15' E 103°54'0 0.0
2018-Jan-27 20:29N 01°15' E 103°54'0 0.0
2018-Jan-27 19:59N 01°15' E 103°54'0 0.0
2018-Jan-27 19:29N 01°15' E 103°54'0 0.0
2018-Jan-27 18:53N 01°15' E 103°54'0 0.1
2018-Jan-27 18:29N 01°15' E 103°54'0 0.0
2018-Jan-27 17:35N 01°15' E 103°54'0 0.0
2018-Jan-27 17:17N 01°15' E 103°54'0 0.0
2018-Jan-27 16:50N 01°15' E 103°54'0 0.0
2018-Jan-27 16:29N 01°15' E 103°54'0 0.0
2018-Jan-27 15:47N 01°15' E 103°54'0 0.0
2018-Jan-27 15:29N 01°15' E 103°54'0 0.0
2018-Jan-27 14:53N 01°15' E 103°54'0 0.0
2018-Jan-27 14:29N 01°15' E 103°54'0 0.0
2018-Jan-27 09:11N 01°15' E 103°54'0 0.2
2018-Jan-27 08:59N 01°15' E 103°54'0 0.2
2018-Jan-27 08:20N 01°15' E 103°54'0 0.2
2018-Jan-27 07:59N 01°15' E 103°55'0 0.1
2018-Jan-27 07:23N 01°15' E 103°55'0 0.0
2018-Jan-27 06:53N 01°15' E 103°55'0 0.0
2018-Jan-27 06:29N 01°15' E 103°55'0 0.0
2018-Jan-27 05:59N 01°15' E 103°55'0 0.0
2018-Jan-27 04:59N 01°15' E 103°55'0 0.1
2018-Jan-27 04:23N 01°15' E 103°55'0 0.1
2018-Jan-27 03:53N 01°15' E 103°55'0 0.0
2018-Jan-27 03:23N 01°15' E 103°55'0 0.2
2018-Jan-27 02:58N 01°15' E 103°55'1 2.8
2018-Jan-27 02:30N 01°14' E 103°54'5 9.5
2018-Jan-27 01:59N 01°12' E 103°49'1 0.8
2018-Jan-27 00:08N 01°12' E 103°48'0 0.0
2018-Jan-26 23:53N 01°12' E 103°48'0 0.0
2018-Jan-26 23:17N 01°12' E 103°48'0 0.0
2018-Jan-26 16:23N 01°12' E 103°48'0 0.0
2018-Jan-26 13:35N 01°12' E 103°48'0 0.0
2018-Jan-26 13:29N 01°12' E 103°48'0 0.0
2018-Jan-26 10:11N 01°12' E 103°48'0 0.0
2018-Jan-26 07:26N 01°12' E 103°48'0 0.0
2018-Jan-25 20:50N 01°12' E 103°48'0 0.0
2018-Jan-25 01:29N 01°12' E 103°48'0 0.0
2018-Jan-25 00:46N 01°12' E 103°48'0 0.2
2018-Jan-25 00:24N 01°12' E 103°48'1 1.4
2018-Jan-25 00:00N 01°13' E 103°48'2 4.1
2018-Jan-24 23:28N 01°13' E 103°51'3 7.0
2018-Jan-24 23:00N 01°14' E 103°54'3 6.7
2018-Jan-24 22:30N 01°16' E 103°56'0 0.6
2018-Jan-24 21:49N 01°16' E 103°56'0 0.0
2018-Jan-24 21:28N 01°16' E 103°56'0 0.0
2018-Jan-24 20:58N 01°16' E 103°56'0 0.0
2018-Jan-24 20:28N 01°16' E 103°56'0 0.0
2018-Jan-24 19:55N 01°16' E 103°56'0 0.0
2018-Jan-24 19:28N 01°16' E 103°56'0 0.0
2018-Jan-24 18:55N 01°16' E 103°56'0 0.0
2018-Jan-24 18:28N 01°16' E 103°56'0 0.1
2018-Jan-24 17:58N 01°16' E 103°56'0 0.1
2018-Jan-24 17:28N 01°16' E 103°56'0 0.0
2018-Jan-24 16:58N 01°16' E 103°56'0 0.1
2018-Jan-24 16:25N 01°16' E 103°56'0 0.4
2018-Jan-24 15:58N 01°16' E 103°56'0 0.3
2018-Jan-24 15:28N 01°16' E 103°56'0 0.1
2018-Jan-24 14:58N 01°16' E 103°56'0 0.0
2018-Jan-24 14:28N 01°16' E 103°56'0 0.1
2018-Jan-24 13:55N 01°16' E 103°56'0 0.0
2018-Jan-24 13:19N 01°16' E 103°56'0 0.1
2018-Jan-24 12:55N 01°16' E 103°56'0 0.2
2018-Jan-24 12:28N 01°16' E 103°56'0 0.0
2018-Jan-24 11:52N 01°16' E 103°56'0 0.0
2018-Jan-24 11:28N 01°16' E 103°56'0 0.0
2018-Jan-24 10:52N 01°16' E 103°56'0 0.0
2018-Jan-24 10:16N 01°16' E 103°56'0 0.1
2018-Jan-24 09:58N 01°16' E 103°56'0 0.4
2018-Jan-24 09:28N 01°16' E 103°56'0 0.1
2018-Jan-24 08:55N 01°16' E 103°56'0 0.0
2018-Jan-24 08:19N 01°16' E 103°56'0 0.1
2018-Jan-24 07:25N 01°16' E 103°56'0 0.0
2018-Jan-24 06:58N 01°16' E 103°56'0 0.1
2018-Jan-24 06:28N 01°16' E 103°56'0 0.1
2018-Jan-24 05:58N 01°16' E 103°56'0 0.0
2018-Jan-24 05:28N 01°16' E 103°56'0 0.1
2018-Jan-24 04:55N 01°16' E 103°56'0 0.0
2018-Jan-24 04:28N 01°16' E 103°56'0 0.0
2018-Jan-24 03:58N 01°16' E 103°56'0 0.0
2018-Jan-24 03:25N 01°16' E 103°56'0 0.0
2018-Jan-24 02:58N 01°16' E 103°56'0 0.0
2018-Jan-24 02:28N 01°16' E 103°56'0 0.1
2018-Jan-24 01:58N 01°16' E 103°56'0 0.0
2018-Jan-24 01:28N 01°16' E 103°56'0 0.0
2018-Jan-24 00:58N 01°16' E 103°56'0 0.0
2018-Jan-24 00:28N 01°16' E 103°56'0 0.0
2018-Jan-23 23:22N 01°16' E 103°56'0 0.0
2018-Jan-23 22:55N 01°16' E 103°56'0 0.0
2018-Jan-23 22:25N 01°16' E 103°56'0 0.0
2018-Jan-23 21:58N 01°16' E 103°56'0 0.0
2018-Jan-23 21:19N 01°16' E 103°56'0 0.0
2018-Jan-23 20:58N 01°16' E 103°56'0 0.0
2018-Jan-23 20:28N 01°16' E 103°56'0 0.0
2018-Jan-23 19:58N 01°16' E 103°56'0 0.0
2018-Jan-23 19:28N 01°16' E 103°56'0 0.0
2018-Jan-23 18:49N 01°16' E 103°56'0 0.0
2018-Jan-23 18:28N 01°16' E 103°56'0 0.0
2018-Jan-23 17:58N 01°16' E 103°56'0 0.0
2018-Jan-23 17:22N 01°16' E 103°56'0 0.0
2018-Jan-23 16:37N 01°16' E 103°56'0 0.0
2018-Jan-23 16:28N 01°16' E 103°56'0 0.0
2018-Jan-23 15:58N 01°16' E 103°56'0 0.3
2018-Jan-23 15:28N 01°16' E 103°56'0 0.4
2018-Jan-23 14:58N 01°16' E 103°56'0 0.1
2018-Jan-23 14:28N 01°16' E 103°56'0 0.0
2018-Jan-23 13:58N 01°16' E 103°56'0 0.0
2018-Jan-23 13:28N 01°16' E 103°56'0 0.1
2018-Jan-23 12:55N 01°16' E 103°56'0 0.0
2018-Jan-23 12:25N 01°16' E 103°56'0 0.1
2018-Jan-23 11:58N 01°16' E 103°56'0 0.1
2018-Jan-23 11:28N 01°16' E 103°56'0 0.0
2018-Jan-23 10:55N 01°16' E 103°56'0 0.0
2018-Jan-23 10:28N 01°16' E 103°56'0 0.0
2018-Jan-23 09:55N 01°16' E 103°56'0 0.0
2018-Jan-23 09:28N 01°16' E 103°56'0 0.1
2018-Jan-23 08:58N 01°16' E 103°56'0 0.3
2018-Jan-23 08:28N 01°16' E 103°56'0 0.2
2018-Jan-23 07:58N 01°16' E 103°56'0 0.0
2018-Jan-23 07:25N 01°16' E 103°56'0 0.1
2018-Jan-23 06:52N 01°16' E 103°56'0 0.1
2018-Jan-23 06:25N 01°16' E 103°56'0 0.0
2018-Jan-23 05:55N 01°16' E 103°56'0 0.0
2018-Jan-23 05:28N 01°16' E 103°56'0 0.0
2018-Jan-23 04:52N 01°16' E 103°56'0 0.0
2018-Jan-23 04:13N 01°16' E 103°56'0 0.0
2018-Jan-23 03:58N 01°16' E 103°56'0 0.1
2018-Jan-23 03:22N 01°16' E 103°56'0 0.0
2018-Jan-23 02:58N 01°16' E 103°56'0 0.6
2018-Jan-23 02:30N 01°16' E 103°56'2 3.3
2018-Jan-23 02:00N 01°15' E 103°57'2 4.4
2018-Jan-23 01:30N 01°14' E 103°56'4 7.6
2018-Jan-23 00:59N 01°12' E 103°52'3 6.2
2018-Jan-23 00:30N 01°11' E 103°49'3 6.0
2018-Jan-22 23:57N 01°09' E 103°47'4 8.2
2018-Jan-22 23:30N 01°06' E 103°44'5 9.2
2018-Jan-22 22:56N 01°04' E 103°40'510.5
2018-Jan-22 22:29N 01°05' E 103°35'712.2
2018-Jan-22 21:53N 01°09' E 103°29'  
Track history (hours):
 
Tides and Currents Weather Stations Pressure Air Temp Water Temp Dewpoint Dewpoint Depression Visibility Wind Speed Wind Dir Waves Ship Positions

United Leadership

Last reported at 2018-Feb-01 01:25 UTC. Time now 2018-Feb-24 22:10 UTC.
Position N 01°18' E 103°20'.
Warning: this ship's position is 23 days out of date.

Length 274 m; draft 9 m.

Type: Ship (hazmat cat D). MMSI: 538005502.

Date/timePositionNaut miles runAvg speedWind from/ knotsBaromVisibWave heightAir tempDewpointWater temp
2018-Feb-01 01:25N 01°18' E 103°20'614.0
2018-Feb-01 00:59N 01°14' E 103°25'714.7
2018-Feb-01 00:30N 01°12' E 103°32'815.5
2018-Jan-31 23:59N 01°11' E 103°40'1414.3
2018-Jan-31 23:00N 01°13' E 103°54'2 3.5
2018-Jan-31 22:20N 01°15' E 103°55'0 0.2
2018-Jan-31 20:47N 01°15' E 103°54'0 0.2
2018-Jan-31 20:26N 01°15' E 103°54'0 0.0
2018-Jan-31 19:59N 01°15' E 103°54'0 0.0
2018-Jan-31 18:59N 01°15' E 103°54'0 0.0
2018-Jan-31 18:29N 01°15' E 103°54'0 0.0
2018-Jan-31 17:56N 01°15' E 103°54'0 0.0
2018-Jan-31 17:14N 01°15' E 103°54'0 0.0
2018-Jan-31 11:44N 01°15' E 103°54'0 0.2
2018-Jan-31 11:02N 01°15' E 103°54'0 0.0
2018-Jan-31 10:56N 01°15' E 103°54'0 0.0
2018-Jan-31 10:26N 01°15' E 103°54'0 0.1
2018-Jan-31 09:50N 01°15' E 103°54'0 0.1
2018-Jan-31 09:29N 01°15' E 103°54'0 0.0
2018-Jan-31 08:56N 01°15' E 103°54'0 0.1
2018-Jan-31 08:26N 01°15' E 103°54'0 0.0
2018-Jan-31 07:59N 01°15' E 103°54'0 0.0
2018-Jan-31 07:29N 01°15' E 103°54'0 0.0
2018-Jan-31 06:56N 01°15' E 103°54'0 0.0
2018-Jan-31 06:28N 01°15' E 103°54'0 0.1
2018-Jan-31 05:56N 01°15' E 103°54'0 0.1
2018-Jan-31 05:23N 01°15' E 103°55'0 0.1
2018-Jan-31 04:50N 01°15' E 103°55'0 0.3
2018-Jan-31 04:29N 01°15' E 103°54'0 0.2
2018-Jan-31 03:50N 01°15' E 103°54'0 0.2
2018-Jan-31 03:26N 01°15' E 103°54'0 0.0
2018-Jan-31 02:50N 01°15' E 103°54'0 0.2
2018-Jan-31 02:26N 01°15' E 103°54'0 0.0
2018-Jan-31 01:59N 01°15' E 103°54'0 0.0
2018-Jan-31 01:23N 01°15' E 103°54'0 0.1
2018-Jan-31 00:44N 01°15' E 103°54'3 3.7
2018-Jan-31 00:00N 01°13' E 103°52'4 7.3
2018-Jan-30 23:30N 01°12' E 103°49'1 2.1
2018-Jan-30 22:59N 01°13' E 103°48'0 0.0
2018-Jan-30 22:29N 01°13' E 103°48'0 0.0
2018-Jan-30 21:29N 01°13' E 103°48'0 0.0
2018-Jan-30 20:53N 01°13' E 103°48'0 0.0
2018-Jan-30 20:23N 01°13' E 103°48'0 0.0
2018-Jan-30 19:59N 01°13' E 103°48'0 0.0
2018-Jan-30 19:29N 01°13' E 103°48'0 0.0
2018-Jan-30 18:41N 01°13' E 103°48'0 0.0
2018-Jan-30 18:14N 01°13' E 103°48'0 0.0
2018-Jan-30 17:53N 01°13' E 103°48'0 0.0
2018-Jan-30 17:17N 01°13' E 103°48'0 0.0
2018-Jan-30 16:26N 01°13' E 103°48'0 0.0
2018-Jan-30 15:50N 01°13' E 103°48'0 0.0
2018-Jan-30 13:23N 01°13' E 103°48'0 0.0
2018-Jan-30 11:44N 01°13' E 103°48'0 0.0
2018-Jan-30 11:20N 01°13' E 103°48'0 0.0
2018-Jan-30 10:26N 01°13' E 103°48'0 0.0
2018-Jan-30 09:23N 01°13' E 103°48'0 0.0
2018-Jan-30 08:53N 01°13' E 103°48'0 0.0
2018-Jan-30 08:20N 01°13' E 103°48'0 0.0
2018-Jan-30 07:53N 01°13' E 103°48'0 0.0
2018-Jan-30 07:23N 01°13' E 103°48'0 0.0
2018-Jan-30 06:53N 01°13' E 103°48'0 0.0
2018-Jan-30 06:20N 01°13' E 103°48'0 0.0
2018-Jan-30 05:50N 01°13' E 103°48'0 0.0
2018-Jan-30 05:29N 01°13' E 103°48'0 0.0
2018-Jan-30 04:59N 01°13' E 103°48'0 0.0
2018-Jan-30 04:29N 01°13' E 103°48'0 0.0
2018-Jan-30 03:53N 01°13' E 103°48'0 0.0
2018-Jan-30 03:26N 01°13' E 103°48'0 0.0
2018-Jan-30 02:50N 01°13' E 103°48'0 0.0
2018-Jan-30 02:20N 01°13' E 103°48'0 0.0
2018-Jan-30 01:59N 01°13' E 103°48'0 0.0
2018-Jan-30 00:38N 01°13' E 103°48'0 0.0
2018-Jan-30 00:23N 01°13' E 103°48'0 0.0
2018-Jan-29 23:59N 01°13' E 103°48'0 0.0
2018-Jan-29 23:20N 01°13' E 103°48'0 0.0
2018-Jan-29 22:59N 01°13' E 103°48'0 0.0
2018-Jan-29 21:11N 01°13' E 103°48'0 0.0
2018-Jan-29 20:44N 01°13' E 103°48'0 0.0
2018-Jan-29 20:29N 01°13' E 103°48'0 0.0
2018-Jan-29 19:59N 01°13' E 103°48'0 0.0
2018-Jan-29 19:29N 01°13' E 103°48'0 0.0
2018-Jan-29 18:59N 01°13' E 103°48'0 0.0
2018-Jan-29 18:17N 01°13' E 103°48'0 0.0
2018-Jan-29 17:38N 01°13' E 103°48'0 0.0
2018-Jan-29 17:29N 01°13' E 103°48'0 0.0
2018-Jan-29 16:56N 01°13' E 103°48'0 0.0
2018-Jan-29 16:26N 01°13' E 103°48'0 0.0
2018-Jan-29 15:44N 01°13' E 103°48'0 0.0
2018-Jan-29 14:41N 01°13' E 103°48'0 0.0
2018-Jan-29 14:14N 01°13' E 103°48'0 0.0
2018-Jan-29 13:53N 01°13' E 103°48'0 0.0
2018-Jan-29 13:26N 01°13' E 103°48'0 0.0
2018-Jan-29 12:17N 01°13' E 103°48'0 0.0
2018-Jan-29 11:23N 01°13' E 103°48'0 0.0
2018-Jan-29 10:47N 01°13' E 103°48'0 0.0
2018-Jan-29 10:23N 01°13' E 103°48'0 0.0
2018-Jan-29 09:56N 01°13' E 103°48'0 0.0
2018-Jan-29 09:26N 01°13' E 103°48'0 0.0
2018-Jan-29 08:56N 01°13' E 103°48'0 0.0
2018-Jan-29 08:29N 01°13' E 103°48'0 0.0
2018-Jan-29 07:38N 01°13' E 103°48'0 0.0
2018-Jan-29 07:26N 01°13' E 103°48'0 0.0
2018-Jan-29 06:56N 01°13' E 103°48'0 0.0
2018-Jan-29 06:26N 01°13' E 103°48'0 0.0
2018-Jan-29 05:53N 01°13' E 103°48'0 0.0
2018-Jan-29 05:23N 01°13' E 103°48'0 0.0
2018-Jan-29 04:11N 01°13' E 103°48'0 0.0
2018-Jan-29 03:59N 01°13' E 103°48'0 0.0
2018-Jan-29 03:26N 01°13' E 103°48'0 0.0
2018-Jan-29 02:59N 01°13' E 103°48'0 0.0
2018-Jan-29 02:26N 01°13' E 103°48'0 0.0
2018-Jan-29 01:59N 01°13' E 103°48'0 0.0
2018-Jan-29 01:20N 01°13' E 103°48'0 0.0
2018-Jan-29 00:59N 01°13' E 103°48'0 0.0
2018-Jan-28 23:47N 01°13' E 103°48'0 0.0
2018-Jan-28 23:29N 01°13' E 103°48'0 0.0
2018-Jan-28 22:59N 01°13' E 103°48'0 0.0
2018-Jan-28 22:29N 01°13' E 103°48'0 0.0
2018-Jan-28 21:44N 01°13' E 103°48'0 0.0
2018-Jan-28 21:23N 01°13' E 103°48'0 0.0
2018-Jan-28 20:59N 01°13' E 103°48'0 0.0
2018-Jan-28 20:20N 01°13' E 103°48'0 0.0
2018-Jan-28 19:59N 01°13' E 103°48'0 0.0
2018-Jan-28 19:29N 01°13' E 103°48'0 0.0
2018-Jan-28 18:53N 01°13' E 103°48'0 0.0
2018-Jan-28 18:29N 01°13' E 103°48'0 0.0
2018-Jan-28 15:11N 01°13' E 103°48'0 0.0
2018-Jan-28 10:59N 01°13' E 103°48'0 0.0
2018-Jan-28 10:30N 01°13' E 103°48'0 0.2
2018-Jan-28 10:00N 01°13' E 103°48'0 0.9
2018-Jan-28 09:30N 01°13' E 103°48'2 3.8
2018-Jan-28 09:00N 01°12' E 103°50'3 6.4
2018-Jan-28 08:30N 01°14' E 103°53'2 4.4
2018-Jan-28 08:00N 01°15' E 103°54'0 0.3
2018-Jan-28 07:23N 01°15' E 103°54'0 0.0
2018-Jan-28 06:59N 01°15' E 103°54'0 0.1
2018-Jan-28 06:29N 01°15' E 103°55'0 0.0
2018-Jan-28 05:59N 01°15' E 103°55'0 0.0
2018-Jan-28 05:17N 01°15' E 103°55'0 0.0
2018-Jan-28 04:53N 01°15' E 103°55'0 0.0
2018-Jan-28 04:29N 01°15' E 103°55'0 0.0
2018-Jan-28 03:59N 01°15' E 103°55'0 0.0
2018-Jan-28 03:29N 01°15' E 103°55'0 0.0
2018-Jan-28 02:59N 01°15' E 103°55'0 0.0
2018-Jan-28 02:29N 01°15' E 103°55'0 0.0
2018-Jan-28 01:59N 01°15' E 103°55'0 0.1
2018-Jan-28 01:29N 01°15' E 103°55'0 0.1
2018-Jan-28 00:53N 01°15' E 103°55'0 0.3
2018-Jan-28 00:29N 01°15' E 103°54'0 0.1
2018-Jan-27 23:05N 01°15' E 103°54'0 0.0
2018-Jan-27 22:53N 01°15' E 103°54'0 0.0
2018-Jan-27 22:17N 01°15' E 103°54'0 0.0
2018-Jan-27 21:53N 01°15' E 103°54'0 0.0
2018-Jan-27 21:29N 01°15' E 103°54'0 0.0
2018-Jan-27 20:59N 01°15' E 103°54'0 0.0
2018-Jan-27 20:29N 01°15' E 103°54'0 0.0
2018-Jan-27 19:59N 01°15' E 103°54'0 0.0
2018-Jan-27 19:29N 01°15' E 103°54'0 0.0
2018-Jan-27 18:53N 01°15' E 103°54'0 0.1
2018-Jan-27 18:29N 01°15' E 103°54'0 0.0
2018-Jan-27 17:35N 01°15' E 103°54'0 0.0
2018-Jan-27 17:17N 01°15' E 103°54'0 0.0
2018-Jan-27 16:50N 01°15' E 103°54'0 0.0
2018-Jan-27 16:29N 01°15' E 103°54'0 0.0
2018-Jan-27 15:47N 01°15' E 103°54'0 0.0
2018-Jan-27 15:29N 01°15' E 103°54'0 0.0
2018-Jan-27 14:53N 01°15' E 103°54'0 0.0
2018-Jan-27 14:29N 01°15' E 103°54'0 0.0
2018-Jan-27 09:11N 01°15' E 103°54'0 0.2
2018-Jan-27 08:59N 01°15' E 103°54'0 0.2
2018-Jan-27 08:20N 01°15' E 103°54'0 0.2
2018-Jan-27 07:59N 01°15' E 103°55'0 0.1
2018-Jan-27 07:23N 01°15' E 103°55'0 0.0
2018-Jan-27 06:53N 01°15' E 103°55'0 0.0
2018-Jan-27 06:29N 01°15' E 103°55'0 0.0
2018-Jan-27 05:59N 01°15' E 103°55'0 0.0
2018-Jan-27 04:59N 01°15' E 103°55'0 0.1
2018-Jan-27 04:23N 01°15' E 103°55'0 0.1
2018-Jan-27 03:53N 01°15' E 103°55'0 0.0
2018-Jan-27 03:23N 01°15' E 103°55'0 0.2
2018-Jan-27 02:58N 01°15' E 103°55'1 2.8
2018-Jan-27 02:30N 01°14' E 103°54'5 9.5
2018-Jan-27 01:59N 01°12' E 103°49'1 0.8
2018-Jan-27 00:08N 01°12' E 103°48'0 0.0
2018-Jan-26 23:53N 01°12' E 103°48'0 0.0
2018-Jan-26 23:17N 01°12' E 103°48'0 0.0
2018-Jan-26 16:23N 01°12' E 103°48'0 0.0
2018-Jan-26 13:35N 01°12' E 103°48'0 0.0
2018-Jan-26 13:29N 01°12' E 103°48'0 0.0
2018-Jan-26 10:11N 01°12' E 103°48'0 0.0
2018-Jan-26 07:26N 01°12' E 103°48'0 0.0
2018-Jan-25 20:50N 01°12' E 103°48'0 0.0
2018-Jan-25 01:29N 01°12' E 103°48'0 0.0
2018-Jan-25 00:46N 01°12' E 103°48'0 0.2
2018-Jan-25 00:24N 01°12' E 103°48'1 1.4
2018-Jan-25 00:00N 01°13' E 103°48'2 4.1
2018-Jan-24 23:28N 01°13' E 103°51'3 7.0
2018-Jan-24 23:00N 01°14' E 103°54'3 6.7
2018-Jan-24 22:30N 01°16' E 103°56'0 0.6
2018-Jan-24 21:49N 01°16' E 103°56'0 0.0
2018-Jan-24 21:28N 01°16' E 103°56'0 0.0
2018-Jan-24 20:58N 01°16' E 103°56'0 0.0
2018-Jan-24 20:28N 01°16' E 103°56'0 0.0
2018-Jan-24 19:55N 01°16' E 103°56'0 0.0
2018-Jan-24 19:28N 01°16' E 103°56'0 0.0
2018-Jan-24 18:55N 01°16' E 103°56'0 0.0
2018-Jan-24 18:28N 01°16' E 103°56'0 0.1
2018-Jan-24 17:58N 01°16' E 103°56'0 0.1
2018-Jan-24 17:28N 01°16' E 103°56'0 0.0
2018-Jan-24 16:58N 01°16' E 103°56'0 0.1
2018-Jan-24 16:25N 01°16' E 103°56'0 0.4
2018-Jan-24 15:58N 01°16' E 103°56'0 0.3
2018-Jan-24 15:28N 01°16' E 103°56'0 0.1
2018-Jan-24 14:58N 01°16' E 103°56'0 0.0
2018-Jan-24 14:28N 01°16' E 103°56'0 0.1
2018-Jan-24 13:55N 01°16' E 103°56'0 0.0
2018-Jan-24 13:19N 01°16' E 103°56'0 0.1
2018-Jan-24 12:55N 01°16' E 103°56'0 0.2
2018-Jan-24 12:28N 01°16' E 103°56'0 0.0
2018-Jan-24 11:52N 01°16' E 103°56'0 0.0
2018-Jan-24 11:28N 01°16' E 103°56'0 0.0
2018-Jan-24 10:52N 01°16' E 103°56'0 0.0
2018-Jan-24 10:16N 01°16' E 103°56'0 0.1
2018-Jan-24 09:58N 01°16' E 103°56'0 0.4
2018-Jan-24 09:28N 01°16' E 103°56'0 0.1
2018-Jan-24 08:55N 01°16' E 103°56'0 0.0
2018-Jan-24 08:19N 01°16' E 103°56'0 0.1
2018-Jan-24 07:25N 01°16' E 103°56'0 0.0
2018-Jan-24 06:58N 01°16' E 103°56'0 0.1
2018-Jan-24 06:28N 01°16' E 103°56'0 0.1
2018-Jan-24 05:58N 01°16' E 103°56'0 0.0
2018-Jan-24 05:28N 01°16' E 103°56'0 0.1
2018-Jan-24 04:55N 01°16' E 103°56'0 0.0
2018-Jan-24 04:28N 01°16' E 103°56'0 0.0
2018-Jan-24 03:58N 01°16' E 103°56'0 0.0
2018-Jan-24 03:25N 01°16' E 103°56'0 0.0
2018-Jan-24 02:58N 01°16' E 103°56'0 0.0
2018-Jan-24 02:28N 01°16' E 103°56'0 0.1
2018-Jan-24 01:58N 01°16' E 103°56'0 0.0
2018-Jan-24 01:28N 01°16' E 103°56'0 0.0
2018-Jan-24 00:58N 01°16' E 103°56'0 0.0
2018-Jan-24 00:28N 01°16' E 103°56'0 0.0
2018-Jan-23 23:22N 01°16' E 103°56'0 0.0
2018-Jan-23 22:55N 01°16' E 103°56'0 0.0
2018-Jan-23 22:25N 01°16' E 103°56'0 0.0
2018-Jan-23 21:58N 01°16' E 103°56'0 0.0
2018-Jan-23 21:19N 01°16' E 103°56'0 0.0
2018-Jan-23 20:58N 01°16' E 103°56'0 0.0
2018-Jan-23 20:28N 01°16' E 103°56'0 0.0
2018-Jan-23 19:58N 01°16' E 103°56'0 0.0
2018-Jan-23 19:28N 01°16' E 103°56'0 0.0
2018-Jan-23 18:49N 01°16' E 103°56'0 0.0
2018-Jan-23 18:28N 01°16' E 103°56'0 0.0
2018-Jan-23 17:58N 01°16' E 103°56'0 0.0
2018-Jan-23 17:22N 01°16' E 103°56'0 0.0
2018-Jan-23 16:37N 01°16' E 103°56'0 0.0
2018-Jan-23 16:28N 01°16' E 103°56'0 0.0
2018-Jan-23 15:58N 01°16' E 103°56'0 0.3
2018-Jan-23 15:28N 01°16' E 103°56'0 0.4
2018-Jan-23 14:58N 01°16' E 103°56'0 0.1
2018-Jan-23 14:28N 01°16' E 103°56'0 0.0
2018-Jan-23 13:58N 01°16' E 103°56'0 0.0
2018-Jan-23 13:28N 01°16' E 103°56'0 0.1
2018-Jan-23 12:55N 01°16' E 103°56'0 0.0
2018-Jan-23 12:25N 01°16' E 103°56'0 0.1
2018-Jan-23 11:58N 01°16' E 103°56'0 0.1
2018-Jan-23 11:28N 01°16' E 103°56'0 0.0
2018-Jan-23 10:55N 01°16' E 103°56'0 0.0
2018-Jan-23 10:28N 01°16' E 103°56'0 0.0
2018-Jan-23 09:55N 01°16' E 103°56'0 0.0
2018-Jan-23 09:28N 01°16' E 103°56'0 0.1
2018-Jan-23 08:58N 01°16' E 103°56'0 0.3
2018-Jan-23 08:28N 01°16' E 103°56'0 0.2
2018-Jan-23 07:58N 01°16' E 103°56'0 0.0
2018-Jan-23 07:25N 01°16' E 103°56'0 0.1
2018-Jan-23 06:52N 01°16' E 103°56'0 0.1
2018-Jan-23 06:25N 01°16' E 103°56'0 0.0
2018-Jan-23 05:55N 01°16' E 103°56'0 0.0
2018-Jan-23 05:28N 01°16' E 103°56'0 0.0
2018-Jan-23 04:52N 01°16' E 103°56'0 0.0
2018-Jan-23 04:13N 01°16' E 103°56'0 0.0
2018-Jan-23 03:58N 01°16' E 103°56'0 0.1
2018-Jan-23 03:22N 01°16' E 103°56'0 0.0
2018-Jan-23 02:58N 01°16' E 103°56'0 0.6
2018-Jan-23 02:30N 01°16' E 103°56'2 3.3
2018-Jan-23 02:00N 01°15' E 103°57'2 4.4
2018-Jan-23 01:30N 01°14' E 103°56'4 7.6
2018-Jan-23 00:59N 01°12' E 103°52'3 6.2
2018-Jan-23 00:30N 01°11' E 103°49'3 6.0
2018-Jan-22 23:57N 01°09' E 103°47'4 8.2
2018-Jan-22 23:30N 01°06' E 103°44'5 9.2
2018-Jan-22 22:56N 01°04' E 103°40'510.5
2018-Jan-22 22:29N 01°05' E 103°35'712.2
2018-Jan-22 21:53N 01°09' E 103°29'  

Dump ship's entire track history